Time;durP1;ratioP1;P1;durP2;ratioP2;P2;SDS_P1;SDS_P2;PMS_P1;PMS_P2;Temp;Humidity;BMP_temperature;BMP_pressure;BME280_temperature;BME280_humidity;BME280_pressure;Samples;Min_cycle;Max_cycle;Signal;HPM_P1;HPM_P2
2023/05/25 00:03:02;;;;;;;9.80;5.43;;;;;;;15.62;65.18;100981.16;10593720;28;20032;-75
2023/05/25 00:08:04;;;;;;;8.27;4.90;;;;;;;15.77;64.16;100980.00;10601172;28;20044;-75
2023/05/25 00:13:06;;;;;;;8.38;4.88;;;;;;;15.82;63.66;100966.09;10576471;28;20047;-75
2023/05/25 00:18:09;;;;;;;10.90;5.35;;;;;;;15.84;63.25;100972.13;10625373;28;20747;-75
2023/05/25 00:23:11;;;;;;;8.55;5.10;;;;;;;15.81;63.84;100972.75;10608866;28;20047;-75
2023/05/25 00:28:13;;;;;;;7.65;4.70;;;;;;;15.74;64.22;100977.84;10559653;28;20498;-75
2023/05/25 00:33:15;;;;;;;7.97;5.20;;;;;;;15.67;64.15;100969.16;10618459;27;20046;-75
2023/05/25 00:38:18;;;;;;;10.13;5.28;;;;;;;15.55;65.10;100971.56;10649225;27;20505;-75
2023/05/25 00:43:20;;;;;;;12.60;5.55;;;;;;;15.53;65.30;100962.75;10598907;27;20035;-75
2023/05/25 00:48:25;;;;;;;9.52;5.68;;;;;;;15.43;65.77;100954.66;10611849;27;20074;-75
2023/05/25 00:53:27;;;;;;;7.15;4.88;;;;;;;15.33;65.73;100953.75;10622975;27;20043;-75
2023/05/25 00:58:32;;;;;;;13.70;5.95;;;;;;;15.33;66.16;100948.22;10615381;27;20042;-74
2023/05/25 01:03:36;;;;;;;8.32;5.72;;;;;;;15.26;66.10;100947.78;10591748;27;20048;-75
2023/05/25 01:08:41;;;;;;;12.30;5.85;;;;;;;15.20;66.81;100945.41;10588753;27;20054;-76
2023/05/25 01:13:44;;;;;;;8.73;5.65;;;;;;;15.17;67.94;100943.25;10622129;27;20047;-76
2023/05/25 01:18:47;;;;;;;9.48;5.47;;;;;;;15.08;68.61;100943.13;10622577;27;20532;-76
2023/05/25 01:23:53;;;;;;;7.85;5.03;;;;;;;15.13;68.70;100945.81;10637483;27;20042;-76
2023/05/25 01:28:56;;;;;;;11.50;5.97;;;;;;;15.13;68.97;100937.53;10637086;27;20435;-76
2023/05/25 01:33:59;;;;;;;11.68;6.60;;;;;;;15.18;68.72;100934.66;10616945;27;20082;-76
2023/05/25 01:39:01;;;;;;;10.38;5.47;;;;;;;15.15;69.55;100926.16;10637656;27;20046;-76
2023/05/25 01:44:06;;;;;;;8.85;5.50;;;;;;;15.17;68.39;100930.25;10637806;27;20052;-76
2023/05/25 01:49:17;;;;;;;7.80;5.85;;;;;;;15.27;69.21;100938.38;10637075;27;20054;-76
2023/05/25 01:54:21;;;;;;;9.48;5.80;;;;;;;15.50;67.08;100924.66;10615182;27;20038;-76
2023/05/25 01:59:26;;;;;;;10.40;6.20;;;;;;;15.68;67.05;100932.06;10607538;27;20130;-76
2023/05/25 02:04:28;;;;;;;10.38;6.60;;;;;;;15.86;66.85;100924.78;10612011;27;20043;-74
2023/05/25 02:09:30;;;;;;;9.18;6.38;;;;;;;15.97;65.78;100920.66;10637022;27;20062;-75
2023/05/25 02:14:38;;;;;;;9.05;6.35;;;;;;;16.07;66.80;100912.13;10610256;27;20039;-75
2023/05/25 02:19:40;;;;;;;12.77;6.60;;;;;;;16.21;65.01;100914.84;10653181;27;20031;-75
2023/05/25 02:24:42;;;;;;;12.32;6.70;;;;;;;16.17;66.04;100917.44;10634351;27;20069;-76
2023/05/25 02:29:47;;;;;;;15.27;7.05;;;;;;;16.28;66.20;100916.06;10619742;27;20031;-75
2023/05/25 02:34:49;;;;;;;10.32;6.85;;;;;;;16.42;65.81;100904.94;10622498;27;20051;-76
2023/05/25 02:39:52;;;;;;;10.75;6.78;;;;;;;16.79;64.78;100908.47;10621089;27;20222;-75
2023/05/25 02:44:55;;;;;;;13.82;6.88;;;;;;;17.03;63.60;100906.19;10619988;27;20905;-75
2023/05/25 02:49:57;;;;;;;12.75;7.60;;;;;;;17.24;63.11;100902.88;10617434;27;20477;-75
2023/05/25 02:55:00;;;;;;;10.75;7.30;;;;;;;17.60;61.38;100911.00;10631984;27;20504;-75
2023/05/25 03:00:11;;;;;;;11.85;6.97;;;;;;;17.64;61.61;100911.97;10608326;27;20049;-75
2023/05/25 03:05:15;;;;;;;12.25;7.30;;;;;;;17.87;60.48;100907.97;10621090;27;20046;-75
2023/05/25 03:10:17;;;;;;;10.00;6.72;;;;;;;18.26;59.48;100900.69;10604252;27;20493;-75
2023/05/25 03:15:19;;;;;;;13.10;6.93;;;;;;;18.68;57.92;100897.09;10633324;27;20046;-75
2023/05/25 03:20:23;;;;;;;14.68;7.57;;;;;;;18.95;56.20;100883.97;10615353;27;20032;-75
2023/05/25 03:25:26;;;;;;;11.63;7.35;;;;;;;19.01;56.53;100888.19;10632358;27;20578;-77
2023/05/25 03:30:30;;;;;;;10.88;6.97;;;;;;;19.50;55.22;100885.88;10621852;27;20035;-76
2023/05/25 03:35:32;;;;;;;9.90;6.45;;;;;;;19.69;54.88;100883.50;10620754;27;20043;-76
2023/05/25 03:40:34;;;;;;;9.60;6.57;;;;;;;19.87;54.56;100882.25;10651488;27;20393;-76
2023/05/25 03:45:37;;;;;;;9.43;6.80;;;;;;;20.01;53.66;100883.97;10599053;28;20047;-76
2023/05/25 03:50:39;;;;;;;11.35;6.68;;;;;;;20.32;53.36;100884.38;10644026;28;20032;-76
2023/05/25 03:55:42;;;;;;;9.52;6.25;;;;;;;20.86;51.70;100876.00;10632739;28;20043;-76
2023/05/25 04:00:44;;;;;;;11.07;6.85;;;;;;;20.46;51.35;100881.31;10641818;28;20501;-76
2023/05/25 04:05:46;;;;;;;7.47;6.10;;;;;;;21.02;49.73;100874.19;10632010;27;20038;-76
2023/05/25 04:10:48;;;;;;;7.43;5.63;;;;;;;21.20;49.99;100874.78;10638022;27;20554;-75
2023/05/25 04:15:51;;;;;;;9.43;6.40;;;;;;;21.71;47.71;100869.72;10659412;27;20045;-75
2023/05/25 04:20:57;;;;;;;8.73;5.37;;;;;;;21.80;47.73;100859.19;10617097;27;20047;-76
2023/05/25 04:26:00;;;;;;;12.60;5.65;;;;;;;22.26;45.61;100863.44;10584086;27;20052;-77
2023/05/25 04:31:04;;;;;;;9.52;5.38;;;;;;;22.60;45.39;100852.00;10634833;27;20039;-77
2023/05/25 04:36:26;;;;;;;8.15;4.68;;;;;;;23.10;43.07;100846.59;10572163;27;20826;-77
2023/05/25 04:41:29;;;;;;;9.05;4.32;;;;;;;23.09;43.43;100853.38;10622114;27;20039;-77
2023/05/25 04:46:38;;;;;;;5.88;4.15;;;;;;;23.67;42.18;100850.00;10600334;28;20039;-77
2023/05/25 04:51:40;;;;;;;6.60;4.40;;;;;;;23.96;41.13;100848.66;10609346;27;20044;-77
2023/05/25 04:56:43;;;;;;;10.40;4.25;;;;;;;24.53;39.55;100852.69;10613774;27;20096;-76
2023/05/25 05:01:46;;;;;;;6.88;3.80;;;;;;;24.96;38.07;100843.06;10640120;27;20039;-76
2023/05/25 05:06:50;;;;;;;6.25;3.58;;;;;;;25.24;37.25;100835.16;10625231;27;20054;-75
2023/05/25 05:11:55;;;;;;;6.60;3.65;;;;;;;25.47;36.36;100829.50;10625386;27;20057;-76
2023/05/25 05:16:58;;;;;;;4.78;3.40;;;;;;;25.45;36.10;100829.06;10603375;27;20035;-76
2023/05/25 05:22:00;;;;;;;6.03;3.58;;;;;;;25.59;35.86;100817.25;10643511;27;20059;-76
2023/05/25 05:27:03;;;;;;;4.65;3.58;;;;;;;25.83;35.55;100819.63;10614004;27;20547;-76
2023/05/25 05:32:12;;;;;;;7.50;3.60;;;;;;;26.46;34.36;100808.78;10642941;27;20052;-76
2023/05/25 05:37:14;;;;;;;9.75;3.33;;;;;;;26.66;34.37;100804.56;10601321;27;20036;-77
2023/05/25 05:42:16;;;;;;;5.05;3.05;;;;;;;26.94;33.44;100798.41;10585483;27;20430;-76
2023/05/25 05:47:19;;;;;;;3.85;3.05;;;;;;;27.13;33.62;100800.22;10598097;27;20709;-77
2023/05/25 05:52:21;;;;;;;3.50;3.20;;;;;;;27.66;32.60;100794.97;10578916;27;20049;-77
2023/05/25 05:57:23;;;;;;;4.93;3.30;;;;;;;27.52;32.19;100794.84;10580404;27;20426;-77
2023/05/25 06:02:26;;;;;;;4.72;3.30;;;;;;;27.58;32.37;100794.06;10573040;27;20050;-77
2023/05/25 06:07:33;;;;;;;5.93;3.15;;;;;;;27.24;32.53;100799.06;10576792;28;20048;-76
2023/05/25 06:12:36;;;;;;;4.53;3.00;;;;;;;27.62;32.06;100800.56;10557209;27;20085;-77
2023/05/25 06:17:38;;;;;;;5.50;2.67;;;;;;;28.05;30.95;100797.19;10566514;27;20502;-77
2023/05/25 06:22:41;;;;;;;3.90;2.78;;;;;;;28.41;31.33;100801.78;10578823;27;20035;-77
2023/05/25 06:27:44;;;;;;;6.50;2.70;;;;;;;28.30;31.56;100797.31;10611352;27;20051;-77
2023/05/25 06:32:47;;;;;;;4.68;2.70;;;;;;;28.33;32.13;100791.69;10607888;27;20509;-76
2023/05/25 06:37:50;;;;;;;6.93;2.78;;;;;;;28.70;31.29;100779.25;10601551;27;20051;-76
2023/05/25 06:42:54;;;;;;;4.10;2.88;;;;;;;28.67;31.62;100780.88;10615288;27;20058;-77
2023/05/25 06:48:27;;;;;;;3.58;2.65;;;;;;;28.50;31.58;100776.81;10607547;27;20039;-76
2023/05/25 06:53:30;;;;;;;9.50;2.92;;;;;;;28.66;31.60;100776.44;10600429;27;20050;-77
2023/05/25 06:58:32;;;;;;;4.05;2.47;;;;;;;28.84;31.41;100779.28;10633541;27;20047;-77
2023/05/25 07:03:35;;;;;;;6.90;2.72;;;;;;;28.88;31.47;100780.13;10587200;27;20039;-77
2023/05/25 07:08:37;;;;;;;5.82;3.05;;;;;;;29.10;31.34;100778.09;10589748;27;20482;-76
2023/05/25 07:13:39;;;;;;;9.20;3.63;;;;;;;29.11;31.24;100774.84;10632703;27;20485;-77
2023/05/25 07:18:41;;;;;;;4.28;2.85;;;;;;;29.55;31.12;100779.28;10649353;27;20042;-74
2023/05/25 07:23:44;;;;;;;4.60;2.80;;;;;;;29.80;30.55;100779.19;10641255;27;20042;-75
2023/05/25 07:28:46;;;;;;;3.80;2.78;;;;;;;29.44;30.67;100767.16;10645692;27;20050;-75
2023/05/25 07:33:49;;;;;;;3.03;2.60;;;;;;;29.65;30.95;100758.63;10641573;27;20052;-75
2023/05/25 07:38:52;;;;;;;3.08;2.78;;;;;;;29.34;30.96;100757.50;10628018;27;20489;-75
2023/05/25 07:43:54;;;;;;;6.30;2.85;;;;;;;29.35;31.87;100759.09;10656021;27;20061;-74
2023/05/25 07:48:58;;;;;;;3.60;2.90;;;;;;;28.85;32.09;100749.00;10652581;28;20043;-75
2023/05/25 07:54:00;;;;;;;3.25;2.72;;;;;;;28.59;31.93;100748.16;10658179;27;20045;-74
2023/05/25 07:59:02;;;;;;;5.57;2.97;;;;;;;28.70;32.13;100746.19;10654447;27;20047;-74
2023/05/25 08:04:05;;;;;;;5.75;2.78;;;;;;;28.43;31.69;100747.75;10645246;28;20043;-74
2023/05/25 08:09:07;;;;;;;5.55;2.92;;;;;;;28.14;32.47;100746.84;10653550;28;20047;-75
2023/05/25 08:14:09;;;;;;;6.45;2.90;;;;;;;27.68;32.06;100755.91;10653402;28;20417;-75
2023/05/25 08:19:11;;;;;;;3.58;2.78;;;;;;;27.71;32.32;100752.31;10650929;28;20527;-75
2023/05/25 08:24:13;;;;;;;4.40;2.92;;;;;;;27.72;32.28;100753.13;10634999;28;20045;-75
2023/05/25 08:29:17;;;;;;;3.20;2.80;;;;;;;27.68;32.23;100752.28;10634861;28;20047;-75
2023/05/25 08:34:19;;;;;;;4.10;2.92;;;;;;;28.08;32.05;100751.25;10617456;28;20055;-74
2023/05/25 08:39:21;;;;;;;3.03;2.65;;;;;;;28.15;31.35;100748.47;10623005;28;20567;-74
2023/05/25 08:44:26;;;;;;;7.60;3.88;;;;;;;28.10;31.66;100748.81;10647415;28;20066;-74
2023/05/25 08:49:30;;;;;;;4.88;3.40;;;;;;;27.74;31.96;100739.41;10636119;28;20039;-74
2023/05/25 08:54:36;;;;;;;6.25;3.67;;;;;;;27.66;31.79;100744.22;10620464;27;20027;-76
2023/05/25 08:59:57;;;;;;;6.55;3.47;;;;;;;28.03;31.76;100729.06;10637629;27;20039;-77
2023/05/25 09:05:00;;;;;;;6.95;3.50;;;;;;;28.36;31.83;100737.25;10636350;27;20035;-77
2023/05/25 09:10:03;;;;;;;4.68;3.63;;;;;;;28.42;31.27;100734.84;10607276;27;20035;-77
2023/05/25 09:15:06;;;;;;;4.35;3.65;;;;;;;27.82;31.58;100730.63;10641827;27;20046;-77
2023/05/25 09:20:10;;;;;;;3.75;3.08;;;;;;;27.28;31.79;100723.84;10642147;27;20039;-77
2023/05/25 09:25:19;;;;;;;6.22;3.70;;;;;;;26.41;33.08;100731.16;10623171;27;20047;-77
2023/05/25 09:30:21;;;;;;;8.00;3.38;;;;;;;25.60;35.00;100737.34;10638015;27;20616;-77
2023/05/25 09:35:24;;;;;;;5.15;3.33;;;;;;;25.02;34.77;100731.28;10640867;27;20039;-76
2023/05/25 09:40:26;;;;;;;4.88;3.35;;;;;;;24.85;34.83;100730.59;10654781;27;20043;-77
2023/05/25 09:45:28;;;;;;;3.15;2.83;;;;;;;24.78;34.32;100735.25;10628485;27;20493;-80
2023/05/25 09:50:31;;;;;;;3.70;2.72;;;;;;;24.71;33.94;100710.72;10647294;27;20051;-77
2023/05/25 09:55:35;;;;;;;5.10;3.00;;;;;;;24.53;32.99;100712.41;10629895;27;20031;-79
2023/05/25 10:00:38;;;;;;;5.28;2.97;;;;;;;24.26;32.06;100709.47;10639850;27;20066;-78
2023/05/25 10:05:40;;;;;;;3.85;2.20;;;;;;;24.35;31.19;100715.69;10661357;27;20051;-79
2023/05/25 10:10:42;;;;;;;5.47;2.83;;;;;;;24.61;32.09;100714.94;10663090;27;20412;-79
2023/05/25 10:15:44;;;;;;;3.17;2.28;;;;;;;24.64;32.43;100713.38;10626462;27;20043;-79
2023/05/25 10:20:48;;;;;;;6.03;2.63;;;;;;;24.71;31.13;100701.47;10643524;27;20065;-78
2023/05/25 10:25:53;;;;;;;4.78;2.42;;;;;;;24.50;31.58;100707.53;10661358;27;20049;-79
2023/05/25 10:30:56;;;;;;;3.00;2.50;;;;;;;24.62;31.73;100704.53;10641579;27;20556;-80
2023/05/25 10:36:01;;;;;;;3.33;2.17;;;;;;;24.42;31.60;100711.38;10618590;27;20043;-79
2023/05/25 10:41:03;;;;;;;3.20;2.35;;;;;;;23.96;33.43;100714.13;10600453;28;20533;-79
2023/05/25 10:46:06;;;;;;;4.63;2.72;;;;;;;23.83;33.84;100710.66;10600224;28;20042;-79
2023/05/25 10:51:08;;;;;;;5.32;2.72;;;;;;;23.80;33.50;100716.19;10601018;28;20054;-80
2023/05/25 10:56:12;;;;;;;3.92;2.88;;;;;;;23.49;34.25;100706.69;10589510;28;20043;-79
2023/05/25 11:01:14;;;;;;;2.50;2.30;;;;;;;23.50;34.12;100702.72;10589913;28;20027;-78
2023/05/25 11:06:20;;;;;;;4.65;2.60;;;;;;;23.49;33.55;100706.69;10614692;28;20042;-78
2023/05/25 11:11:42;;;;;;;6.57;2.47;;;;;;;23.68;33.88;100703.94;10565634;28;20044;-78
2023/05/25 11:17:14;;;;;;;3.67;2.63;;;;;;;23.65;34.15;100712.28;10615560;28;20051;-80
2023/05/25 11:22:29;;;;;;;4.20;2.63;;;;;;;23.53;34.51;100704.78;10616354;28;20035;-77
2023/05/25 11:27:40;;;;;;;6.45;2.53;;;;;;;23.58;33.25;100706.50;10598725;28;20062;-77
2023/05/25 11:32:49;;;;;;;4.47;2.53;;;;;;;23.40;33.47;100706.06;10611710;27;20063;-78
2023/05/25 11:37:52;;;;;;;3.00;2.45;;;;;;;23.15;33.23;100711.94;10639756;27;20122;-78
2023/05/25 11:42:56;;;;;;;4.15;2.72;;;;;;;22.92;34.68;100704.59;10656689;27;20039;-77
2023/05/25 11:47:58;;;;;;;5.88;2.55;;;;;;;22.63;34.54;100697.44;10618185;27;20444;-79
2023/05/25 11:53:04;;;;;;;5.88;2.70;;;;;;;22.45;34.66;100700.59;10622473;28;20035;-81
2023/05/25 11:58:07;;;;;;;4.55;2.38;;;;;;;22.60;34.87;100692.56;10643990;27;20035;-80
2023/05/25 12:03:09;;;;;;;6.57;2.63;;;;;;;22.70;34.32;100678.84;10637671;27;20090;-81
2023/05/25 12:08:11;;;;;;;3.70;3.13;;;;;;;22.47;34.08;100698.25;10609072;28;20043;-82
2023/05/25 12:13:13;;;;;;;5.43;2.55;;;;;;;22.32;34.05;100696.25;10626048;28;20050;-79
2023/05/25 12:18:15;;;;;;;7.05;3.38;;;;;;;22.35;34.84;100689.94;10607415;27;20045;-82
2023/05/25 12:23:18;;;;;;;8.63;2.80;;;;;;;22.51;35.13;100682.34;10641068;27;20035;-79
2023/05/25 12:28:20;;;;;;;3.25;2.72;;;;;;;22.70;35.65;100680.81;10632397;27;20028;-81
2023/05/25 12:33:22;;;;;;;6.45;2.55;;;;;;;22.78;35.52;100674.25;10645383;27;20043;-81
2023/05/25 12:38:24;;;;;;;5.85;2.70;;;;;;;22.62;35.13;100685.44;10651302;27;20420;-78
2023/05/25 12:43:36;;;;;;;7.70;2.85;;;;;;;22.80;35.78;100677.47;10631433;27;20047;-77
2023/05/25 12:48:38;;;;;;;8.85;3.20;;;;;;;22.84;35.49;100695.19;10618194;28;20051;-77
2023/05/25 12:53:50;;;;;;;10.10;3.40;;;;;;;22.43;36.86;100697.34;10640698;27;20416;-77
2023/05/25 12:58:52;;;;;;;11.55;3.13;;;;;;;21.91;38.57;100701.09;10658793;27;20629;-78
2023/05/25 13:03:54;;;;;;;3.70;2.75;;;;;;;21.53;40.07;100714.75;10638539;27;20043;-77
2023/05/25 13:08:57;;;;;;;5.10;3.53;;;;;;;21.43;41.06;100704.88;10640487;27;20040;-77
2023/05/25 13:14:00;;;;;;;7.30;3.50;;;;;;;21.33;41.80;100706.16;10620965;27;20039;-77
2023/05/25 13:19:02;;;;;;;3.80;3.25;;;;;;;21.14;42.67;100700.34;10657472;27;20405;-77
2023/05/25 13:24:04;;;;;;;3.92;3.05;;;;;;;20.88;43.70;100697.94;10622118;27;20032;-77
2023/05/25 13:29:06;;;;;;;5.85;2.95;;;;;;;20.82;44.23;100687.34;10637280;27;20505;-77
2023/05/25 13:34:08;;;;;;;4.75;2.83;;;;;;;20.99;44.46;100689.91;10594569;28;20035;-77
2023/05/25 13:39:12;;;;;;;2.92;2.72;;;;;;;21.04;44.16;100682.13;10590702;28;20035;-77
2023/05/25 13:44:14;;;;;;;5.57;2.60;;;;;;;20.92;44.89;100679.34;10612481;27;20534;-77
2023/05/25 13:49:18;;;;;;;3.70;2.25;;;;;;;20.68;45.29;100676.56;10611668;28;20035;-78
2023/05/25 13:54:20;;;;;;;3.45;2.42;;;;;;;20.61;45.91;100670.75;10592212;28;20043;-77
2023/05/25 13:59:22;;;;;;;2.67;2.40;;;;;;;20.49;46.72;100677.16;10595313;28;20572;-76
2023/05/25 14:04:24;;;;;;;3.08;2.78;;;;;;;20.46;47.91;100683.38;10611113;28;20044;-75
2023/05/25 14:09:27;;;;;;;4.47;2.72;;;;;;;20.18;49.02;100689.59;10591146;28;20055;-75
2023/05/25 14:14:29;;;;;;;2.88;2.35;;;;;;;20.17;48.78;100670.44;10606853;28;20044;-76
2023/05/25 14:19:33;;;;;;;3.28;2.42;;;;;;;20.20;49.14;100669.75;10575409;28;20536;-76
2023/05/25 14:24:35;;;;;;;5.63;2.88;;;;;;;20.50;49.26;100673.19;10593061;28;20036;-76
2023/05/25 14:29:37;;;;;;;8.35;2.75;;;;;;;20.38;48.59;100673.13;10591370;27;20038;-83
2023/05/25 14:34:40;;;;;;;3.85;2.70;;;;;;;20.28;48.97;100671.59;10611544;27;20316;-79
2023/05/25 14:39:42;;;;;;;3.80;2.72;;;;;;;20.15;49.68;100664.41;10609860;27;20048;-76
2023/05/25 14:44:45;;;;;;;2.78;2.45;;;;;;;20.13;50.00;100667.53;10607562;28;20043;-77
2023/05/25 14:49:47;;;;;;;2.83;2.53;;;;;;;20.00;50.40;100665.88;10612959;28;20045;-77
2023/05/25 14:54:50;;;;;;;3.67;3.10;;;;;;;20.08;50.35;100669.72;10574027;28;20074;-76
2023/05/25 14:59:52;;;;;;;3.78;2.75;;;;;;;19.84;50.67;100673.25;10614246;27;20044;-77
2023/05/25 15:04:55;;;;;;;4.40;2.40;;;;;;;19.68;51.33;100669.47;10567684;27;20042;-78
2023/05/25 15:09:57;;;;;;;5.68;2.17;;;;;;;19.67;51.16;100662.28;10566591;28;20027;-76
2023/05/25 15:14:59;;;;;;;3.00;2.70;;;;;;;19.55;51.31;100672.19;10590831;28;20050;-78
2023/05/25 15:20:01;;;;;;;3.03;2.65;;;;;;;19.40;51.91;100653.28;10605730;28;20040;-78
2023/05/25 15:25:04;;;;;;;2.35;2.15;;;;;;;19.17;52.44;100658.38;10594874;28;20043;-77
2023/05/25 15:30:07;;;;;;;5.95;2.38;;;;;;;19.11;53.87;100656.16;10549075;28;20035;-79
2023/05/25 15:35:09;;;;;;;4.03;2.50;;;;;;;18.92;54.65;100657.44;10608204;27;20050;-78
2023/05/25 15:40:13;;;;;;;7.50;2.70;;;;;;;18.74;56.21;100663.41;10611231;27;20050;-77
2023/05/25 15:45:15;;;;;;;5.47;2.55;;;;;;;18.61;57.03;100659.69;10648545;27;20039;-78
2023/05/25 15:50:17;;;;;;;6.15;2.42;;;;;;;18.63;58.42;100655.47;10636029;27;20046;-77
2023/05/25 15:55:20;;;;;;;4.47;3.30;;;;;;;18.59;59.77;100648.09;10646562;27;20031;-77
2023/05/25 16:00:22;;;;;;;4.03;2.58;;;;;;;18.25;60.69;100644.31;10627541;27;20040;-78
2023/05/25 16:05:24;;;;;;;4.90;2.67;;;;;;;18.17;61.59;100642.38;10630800;27;20031;-78
2023/05/25 16:10:26;;;;;;;3.80;2.63;;;;;;;18.06;61.58;100646.69;10595373;27;20070;-79
2023/05/25 16:15:29;;;;;;;4.10;3.05;;;;;;;18.06;62.20;100641.13;10655244;27;20035;-79
2023/05/25 16:20:31;;;;;;;3.20;2.50;;;;;;;18.06;61.68;100644.72;10628940;27;20054;-76
2023/05/25 16:25:33;;;;;;;4.20;2.75;;;;;;;18.12;61.02;100642.56;10650695;27;20508;-78
2023/05/25 16:30:35;;;;;;;3.95;2.90;;;;;;;18.06;61.71;100638.34;10654097;27;20043;-78
2023/05/25 16:35:37;;;;;;;3.60;2.72;;;;;;;18.04;60.94;100643.41;10620095;27;20058;-79
2023/05/25 16:40:39;;;;;;;4.50;2.67;;;;;;;17.83;61.31;100640.50;10614475;27;20031;-83
2023/05/25 16:45:42;;;;;;;5.82;3.00;;;;;;;17.84;61.27;100631.03;10635285;27;20132;-82
2023/05/25 16:50:44;;;;;;;4.57;2.85;;;;;;;17.82;60.83;100624.19;10606902;22;20056;-80
2023/05/25 16:55:47;;;;;;;4.65;3.00;;;;;;;17.87;60.63;100626.78;10542954;28;20080;-79
2023/05/25 17:00:49;;;;;;;4.93;2.92;;;;;;;17.95;61.12;100624.00;10496540;28;20399;-79
2023/05/25 17:05:52;;;;;;;5.68;3.40;;;;;;;18.01;61.99;100619.06;10517840;28;20036;-81
2023/05/25 17:10:54;;;;;;;3.97;2.90;;;;;;;17.90;62.42;100623.38;10518522;28;20044;-79
2023/05/25 17:15:56;;;;;;;5.35;3.30;;;;;;;17.57;62.66;100618.34;10510673;28;20045;-76
2023/05/25 17:20:58;;;;;;;7.35;3.15;;;;;;;17.58;62.74;100608.88;10544774;28;20414;-78
2023/05/25 17:26:01;;;;;;;3.63;3.17;;;;;;;17.54;62.36;100598.75;10552883;28;20040;-75
2023/05/25 17:31:03;;;;;;;5.55;3.53;;;;;;;17.60;62.32;100586.34;10488497;28;20032;-74
2023/05/25 17:36:06;;;;;;;4.15;3.53;;;;;;;17.47;62.95;100590.91;10518650;28;20040;-74
2023/05/25 17:41:08;;;;;;;4.65;3.95;;;;;;;17.30;63.79;100586.22;10498607;28;20033;-74
2023/05/25 17:46:10;;;;;;;4.78;3.75;;;;;;;17.41;63.58;100576.41;10520731;28;20051;-77
2023/05/25 17:51:12;;;;;;;8.50;4.07;;;;;;;17.39;64.12;100586.22;10492954;28;20064;-74
2023/05/25 17:56:15;;;;;;;6.78;3.80;;;;;;;17.28;64.79;100596.00;10465269;28;20053;-74
2023/05/25 18:01:17;;;;;;;5.10;3.85;;;;;;;17.14;65.25;100598.94;10426508;28;20037;-77
2023/05/25 18:06:19;;;;;;;4.57;3.92;;;;;;;17.09;65.65;100599.91;10464159;28;20037;-78
2023/05/25 18:11:22;;;;;;;6.15;4.28;;;;;;;17.31;65.78;100610.03;10454927;28;20038;-76
2023/05/25 18:16:24;;;;;;;4.95;3.78;;;;;;;17.20;65.79;100596.84;10475899;28;20557;-77
2023/05/25 18:21:26;;;;;;;4.40;4.00;;;;;;;17.06;67.22;100605.31;10468920;28;20052;-78
2023/05/25 18:26:28;;;;;;;5.40;4.40;;;;;;;16.93;67.93;100612.63;10484957;28;20392;-77
2023/05/25 18:31:32;;;;;;;7.03;4.45;;;;;;;16.80;69.33;100619.94;10488156;28;20048;-76
2023/05/25 18:36:35;;;;;;;5.28;4.00;;;;;;;16.66;70.14;100607.31;10479664;28;20037;-79
2023/05/25 18:41:38;;;;;;;9.45;3.95;;;;;;;16.40;70.93;100605.31;10468210;28;20047;-77
2023/05/25 18:46:42;;;;;;;5.68;4.10;;;;;;;16.45;70.68;100591.31;10475809;28;20037;-77
2023/05/25 18:51:44;;;;;;;6.13;3.85;;;;;;;16.42;69.62;100580.88;10505237;28;20041;-76
2023/05/25 18:56:47;;;;;;;6.45;3.83;;;;;;;16.29;69.44;100592.88;10516597;28;20053;-75
2023/05/25 19:01:50;;;;;;;5.70;4.05;;;;;;;16.30;68.91;100602.81;10520463;28;20489;-75
2023/05/25 19:06:52;;;;;;;5.22;3.90;;;;;;;16.29;68.26;100610.31;10546123;28;20036;-77
2023/05/25 19:11:54;;;;;;;5.97;4.00;;;;;;;16.15;67.74;100612.41;10506190;28;20051;-77
2023/05/25 19:16:56;;;;;;;5.50;3.85;;;;;;;16.07;67.59;100606.81;10477424;28;20033;-75
2023/05/25 19:21:58;;;;;;;5.40;3.88;;;;;;;16.04;67.29;100601.91;10543709;28;20055;-75
2023/05/25 19:27:00;;;;;;;5.22;3.75;;;;;;;15.91;66.75;100590.59;10521068;28;20044;-77
2023/05/25 19:32:03;;;;;;;4.45;3.45;;;;;;;15.86;67.24;100590.75;10524714;28;20052;-78
2023/05/25 19:37:05;;;;;;;4.80;3.28;;;;;;;15.78;67.58;100591.50;10515370;28;20496;-75
2023/05/25 19:42:07;;;;;;;10.55;4.22;;;;;;;15.81;67.48;100604.72;10527670;28;20459;-75
2023/05/25 19:47:09;;;;;;;3.70;3.20;;;;;;;15.87;67.39;100609.00;10529176;28;20040;-74
2023/05/25 19:52:11;;;;;;;4.25;3.42;;;;;;;15.76;67.63;100613.16;10508493;28;20045;-74
2023/05/25 19:57:14;;;;;;;5.30;3.67;;;;;;;15.60;68.04;100604.41;10487233;28;20041;-75
2023/05/25 20:02:16;;;;;;;5.57;3.78;;;;;;;15.32;69.13;100591.84;10461198;28;20645;-75
2023/05/25 20:07:19;;;;;;;6.57;3.70;;;;;;;15.18;70.04;100593.84;10501526;28;20043;-79
2023/05/25 20:12:21;;;;;;;5.30;3.80;;;;;;;15.04;70.46;100593.88;10468055;28;20041;-76
2023/05/25 20:17:26;;;;;;;6.03;4.05;;;;;;;14.95;72.08;100593.00;10450153;28;20152;-77
2023/05/25 20:22:31;;;;;;;4.90;3.67;;;;;;;14.87;73.11;100590.97;10478484;28;20063;-76
2023/05/25 20:27:33;;;;;;;5.50;3.88;;;;;;;14.84;73.37;100584.13;10485257;28;20041;-78
2023/05/25 20:32:35;;;;;;;5.03;3.85;;;;;;;14.82;73.49;100585.56;10454936;28;20054;-76
2023/05/25 20:37:37;;;;;;;5.70;3.75;;;;;;;14.64;74.68;100582.63;10457113;28;20068;-75
2023/05/25 20:42:40;;;;;;;6.35;4.45;;;;;;;14.44;76.75;100596.88;10459997;28;20037;-76
2023/05/25 20:47:42;;;;;;;6.47;3.95;;;;;;;14.45;77.07;100593.00;10439255;28;20056;-78
2023/05/25 20:52:44;;;;;;;5.05;4.00;;;;;;;14.36;78.09;100587.34;10471103;28;20036;-76
2023/05/25 20:57:46;;;;;;;6.15;4.20;;;;;;;14.43;77.55;100593.31;10489174;28;20049;-81
2023/05/25 21:02:48;;;;;;;5.55;4.10;;;;;;;14.52;77.94;100604.44;10492732;28;20049;-80
2023/05/25 21:07:50;;;;;;;6.18;4.35;;;;;;;14.52;77.53;100600.84;10479116;28;20060;-78
2023/05/25 21:12:52;;;;;;;5.63;3.92;;;;;;;14.25;79.04;100609.94;10471791;28;20037;-78
2023/05/25 21:17:55;;;;;;;6.20;4.05;;;;;;;14.28;79.17;100607.38;10487835;28;20051;-77
2023/05/25 21:22:57;;;;;;;7.95;4.30;;;;;;;14.27;79.45;100615.97;10471996;28;20511;-76
2023/05/25 21:27:59;;;;;;;6.70;4.43;;;;;;;14.25;80.06;100629.28;10489458;28;20049;-75
2023/05/25 21:33:01;;;;;;;8.00;4.68;;;;;;;14.14;80.10;100618.41;10470133;28;20080;-74
2023/05/25 21:38:03;;;;;;;6.30;4.63;;;;;;;13.98;80.57;100613.50;10474450;28;20535;-74
2023/05/25 21:43:07;;;;;;;7.07;4.85;;;;;;;13.91;81.59;100624.13;10478859;28;20045;-76
2023/05/25 21:48:10;;;;;;;7.85;4.70;;;;;;;13.89;81.84;100616.16;10469651;28;20049;-75
2023/05/25 21:53:12;;;;;;;7.28;4.85;;;;;;;13.88;82.53;100620.84;10513184;28;20056;-76
2023/05/25 21:58:16;;;;;;;8.55;5.22;;;;;;;13.89;82.77;100613.38;10492791;28;20411;-77
2023/05/25 22:03:18;;;;;;;6.53;5.38;;;;;;;13.91;82.85;100619.41;10512003;28;20080;-77
2023/05/25 22:08:20;;;;;;;8.00;5.68;;;;;;;13.98;82.22;100624.53;10529153;28;20040;-78
2023/05/25 22:13:22;;;;;;;6.97;5.40;;;;;;;13.77;83.34;100621.31;10521130;28;20039;-79
2023/05/25 22:18:24;;;;;;;9.10;6.00;;;;;;;13.69;83.48;100619.25;10508417;28;20360;-78
2023/05/25 22:23:27;;;;;;;7.90;5.45;;;;;;;13.79;83.84;100608.03;10526654;28;20044;-76
2023/05/25 22:28:30;;;;;;;6.20;4.80;;;;;;;13.69;83.85;100616.50;10527913;28;20418;-78
2023/05/25 22:33:32;;;;;;;7.28;5.72;;;;;;;13.62;84.43;100610.56;10526323;28;20041;-78
2023/05/25 22:38:34;;;;;;;7.22;5.55;;;;;;;13.64;84.39;100628.44;10526246;28;20060;-76
2023/05/25 22:43:36;;;;;;;7.70;5.70;;;;;;;13.51;85.08;100632.78;10470207;28;20531;-76
2023/05/25 22:48:39;;;;;;;9.25;6.13;;;;;;;13.39;84.87;100628.88;10491234;28;20057;-76
2023/05/25 22:53:42;;;;;;;8.48;5.80;;;;;;;13.30;85.62;100627.88;10498817;28;20047;-76
2023/05/25 22:58:44;;;;;;;11.10;5.95;;;;;;;13.25;85.48;100626.88;10523154;28;20040;-76
2023/05/25 23:03:46;;;;;;;13.63;6.50;;;;;;;13.20;86.09;100626.13;10526906;28;20491;-76
2023/05/25 23:08:48;;;;;;;9.18;5.97;;;;;;;13.08;85.78;100622.97;10519588;28;20052;-77
2023/05/25 23:13:50;;;;;;;9.35;6.72;;;;;;;13.08;85.92;100618.28;10531722;28;20494;-76